Terminal Aerodrome Forecast
Issued by NWS Newport/Morehead City, NC

Home | Current Version | Previous Version | Graphics & Text | Print | Product List | Glossary On
Versions: 1 2 3 4 5 6 7 8 9 10 11 12 13 14
000
FTUS42 KMHX 211738
TAFEWN
TAF
KEWN 211738Z 2118/2218 26007KT P6SM FEW250
     FM220800 04005KT P6SM -SHRA OVC025
     FM221200 02012KT P6SM OVC040
     FM221700 01013KT P6SM SCT200=

USA.gov is the U.S. government's official web portal to all federal, state and local government web resources and services.